South Waterford, Maine
Current Conditions -  °F | °C
As of 4:54 AM on Thursday 23 Oct 2014 (Local Time) from KIZG Reporting Station
Light Rain Light Rain  
Wind Chill: 43°   Ceiling: 1000
Heat Index: 47°   Visibility: 7mi
Dew Point: 45°   Wind: 9mph
Humidity: 93%   Direction: 10°N
Pressure: 29.93"   Gusts: NA
Location:  44.17°N, 70.72°W
Report Text: KIZG 230854Z AUTO 01008KT 7SM -RA OVC010 08/07 A2993 RMK AO2 RAB0755 SLP137 P0003 60008 T00830072 56018
Loading
Personal Weather Stations






























Interactive Weather Map New forecast layout! Learn more

10-Day Weather Forecast

Advertisements
Track Severe Weather on mobile